Bella Vista, Arkansas
Current Conditions -  °F | °C
As of 6:35 AM on Monday 24 Nov 2014 (Local Time) from KVBT Reporting Station
Clear Clear  
Wind Chill:   Ceiling: Unl
Heat Index:   Visibility: 10mi
Dew Point: -2°   Wind: 8mph
Humidity: 70%   Direction: 270°W
Pressure: 29.8"   Gusts: NA
Location:  36.48°N, 94.25°W
Report Text: KVBT 241235Z AUTO 27007KT 10SM CLR 03/M02 A2980 RMK AO1
Loading
Personal Weather Stations






























Interactive Weather Map New forecast layout! Learn more

10-Day Weather Forecast

Advertisements
Track Severe Weather on mobile